sensor_id;sensor_type;location;lat;lon;timestamp;P1;durP1;ratioP1;P2;durP2;ratioP2
82642;SDS011;72323;41.914;22.438;2023-11-22T00:00:51;3.80;;;2.10;;
82642;SDS011;72323;41.914;22.438;2023-11-22T00:03:17;4.45;;;2.30;;
82642;SDS011;72323;41.914;22.438;2023-11-22T00:05:44;3.40;;;1.77;;
82642;SDS011;72323;41.914;22.438;2023-11-22T00:08:10;3.03;;;1.80;;
82642;SDS011;72323;41.914;22.438;2023-11-22T00:10:36;4.90;;;2.70;;
82642;SDS011;72323;41.914;22.438;2023-11-22T00:13:02;4.57;;;2.05;;
82642;SDS011;72323;41.914;22.438;2023-11-22T00:15:28;4.25;;;2.60;;
82642;SDS011;72323;41.914;22.438;2023-11-22T00:17:54;3.67;;;2.20;;
82642;SDS011;72323;41.914;22.438;2023-11-22T00:20:22;3.22;;;1.98;;
82642;SDS011;72323;41.914;22.438;2023-11-22T00:22:48;3.30;;;1.50;;
82642;SDS011;72323;41.914;22.438;2023-11-22T00:25:15;3.42;;;1.90;;
82642;SDS011;72323;41.914;22.438;2023-11-22T00:27:41;8.75;;;4.88;;
82642;SDS011;72323;41.914;22.438;2023-11-22T00:30:07;10.48;;;5.53;;
82642;SDS011;72323;41.914;22.438;2023-11-22T00:32:34;10.90;;;5.80;;
82642;SDS011;72323;41.914;22.438;2023-11-22T00:35:01;9.93;;;5.85;;
82642;SDS011;72323;41.914;22.438;2023-11-22T00:37:27;12.77;;;6.07;;
82642;SDS011;72323;41.914;22.438;2023-11-22T00:39:53;9.35;;;5.80;;
82642;SDS011;72323;41.914;22.438;2023-11-22T00:42:19;10.57;;;5.20;;
82642;SDS011;72323;41.914;22.438;2023-11-22T00:44:46;10.55;;;5.13;;
82642;SDS011;72323;41.914;22.438;2023-11-22T00:47:13;9.85;;;5.30;;
82642;SDS011;72323;41.914;22.438;2023-11-22T00:49:41;8.60;;;4.82;;
82642;SDS011;72323;41.914;22.438;2023-11-22T00:52:07;7.97;;;4.30;;
82642;SDS011;72323;41.914;22.438;2023-11-22T00:54:33;8.55;;;3.80;;
82642;SDS011;72323;41.914;22.438;2023-11-22T00:56:59;6.93;;;3.83;;
82642;SDS011;72323;41.914;22.438;2023-11-22T00:59:26;6.97;;;3.97;;
82642;SDS011;72323;41.914;22.438;2023-11-22T01:01:52;7.38;;;3.83;;
82642;SDS011;72323;41.914;22.438;2023-11-22T01:04:18;13.52;;;6.22;;
82642;SDS011;72323;41.914;22.438;2023-11-22T01:06:44;33.50;;;11.88;;
82642;SDS011;72323;41.914;22.438;2023-11-22T01:09:10;14.00;;;7.10;;
82642;SDS011;72323;41.914;22.438;2023-11-22T01:11:39;18.88;;;8.05;;
82642;SDS011;72323;41.914;22.438;2023-11-22T01:14:05;52.33;;;16.60;;
82642;SDS011;72323;41.914;22.438;2023-11-22T01:16:31;180.98;;;51.33;;
82642;SDS011;72323;41.914;22.438;2023-11-22T01:18:57;242.80;;;65.68;;
82642;SDS011;72323;41.914;22.438;2023-11-22T01:21:23;32.35;;;11.88;;
82642;SDS011;72323;41.914;22.438;2023-11-22T01:23:50;14.00;;;5.28;;
82642;SDS011;72323;41.914;22.438;2023-11-22T01:26:16;13.10;;;5.80;;
82642;SDS011;72323;41.914;22.438;2023-11-22T01:28:42;10.00;;;5.40;;
82642;SDS011;72323;41.914;22.438;2023-11-22T01:31:12;10.82;;;5.22;;
82642;SDS011;72323;41.914;22.438;2023-11-22T01:33:38;8.50;;;4.78;;
82642;SDS011;72323;41.914;22.438;2023-11-22T01:36:05;10.98;;;4.93;;
82642;SDS011;72323;41.914;22.438;2023-11-22T01:38:31;7.38;;;3.75;;
82642;SDS011;72323;41.914;22.438;2023-11-22T01:40:57;7.00;;;3.72;;
82642;SDS011;72323;41.914;22.438;2023-11-22T01:43:26;7.72;;;4.00;;
82642;SDS011;72323;41.914;22.438;2023-11-22T01:45:53;9.98;;;4.60;;
82642;SDS011;72323;41.914;22.438;2023-11-22T01:48:20;17.10;;;7.28;;
82642;SDS011;72323;41.914;22.438;2023-11-22T01:50:46;32.88;;;12.15;;
82642;SDS011;72323;41.914;22.438;2023-11-22T01:53:13;19.35;;;8.38;;
82642;SDS011;72323;41.914;22.438;2023-11-22T01:55:41;20.52;;;8.48;;
82642;SDS011;72323;41.914;22.438;2023-11-22T01:58:08;23.17;;;9.30;;
82642;SDS011;72323;41.914;22.438;2023-11-22T02:00:45;23.80;;;10.05;;
82642;SDS011;72323;41.914;22.438;2023-11-22T02:03:14;30.00;;;11.80;;
82642;SDS011;72323;41.914;22.438;2023-11-22T02:05:41;52.42;;;20.85;;
82642;SDS011;72323;41.914;22.438;2023-11-22T02:08:11;81.75;;;32.03;;
82642;SDS011;72323;41.914;22.438;2023-11-22T02:10:37;74.75;;;30.27;;
82642;SDS011;72323;41.914;22.438;2023-11-22T02:13:06;58.20;;;22.48;;
82642;SDS011;72323;41.914;22.438;2023-11-22T02:15:36;47.35;;;18.98;;
82642;SDS011;72323;41.914;22.438;2023-11-22T02:18:03;15.10;;;6.75;;
82642;SDS011;72323;41.914;22.438;2023-11-22T02:20:31;14.57;;;6.57;;
82642;SDS011;72323;41.914;22.438;2023-11-22T02:22:57;10.82;;;5.15;;
82642;SDS011;72323;41.914;22.438;2023-11-22T02:25:23;8.15;;;4.80;;
82642;SDS011;72323;41.914;22.438;2023-11-22T02:27:49;8.23;;;4.30;;
82642;SDS011;72323;41.914;22.438;2023-11-22T02:30:15;8.50;;;4.68;;
82642;SDS011;72323;41.914;22.438;2023-11-22T02:32:41;10.55;;;4.38;;
82642;SDS011;72323;41.914;22.438;2023-11-22T02:35:07;6.97;;;3.90;;
82642;SDS011;72323;41.914;22.438;2023-11-22T02:37:34;9.32;;;4.55;;
82642;SDS011;72323;41.914;22.438;2023-11-22T02:42:35;7.22;;;4.47;;
82642;SDS011;72323;41.914;22.438;2023-11-22T02:45:01;7.38;;;3.53;;
82642;SDS011;72323;41.914;22.438;2023-11-22T02:47:28;8.77;;;4.15;;
82642;SDS011;72323;41.914;22.438;2023-11-22T02:49:55;7.10;;;3.97;;
82642;SDS011;72323;41.914;22.438;2023-11-22T02:52:21;6.40;;;3.55;;
82642;SDS011;72323;41.914;22.438;2023-11-22T02:54:49;7.65;;;4.03;;
82642;SDS011;72323;41.914;22.438;2023-11-22T02:57:15;7.05;;;3.72;;
82642;SDS011;72323;41.914;22.438;2023-11-22T02:59:42;9.60;;;4.10;;
82642;SDS011;72323;41.914;22.438;2023-11-22T03:02:08;12.45;;;5.65;;
82642;SDS011;72323;41.914;22.438;2023-11-22T03:04:34;13.18;;;6.18;;
82642;SDS011;72323;41.914;22.438;2023-11-22T03:07:00;13.15;;;7.15;;
82642;SDS011;72323;41.914;22.438;2023-11-22T03:09:26;11.43;;;5.90;;
82642;SDS011;72323;41.914;22.438;2023-11-22T03:11:53;8.43;;;5.07;;
82642;SDS011;72323;41.914;22.438;2023-11-22T03:14:19;15.10;;;7.13;;
82642;SDS011;72323;41.914;22.438;2023-11-22T03:16:47;13.48;;;7.55;;
82642;SDS011;72323;41.914;22.438;2023-11-22T03:19:13;14.10;;;8.52;;
82642;SDS011;72323;41.914;22.438;2023-11-22T03:21:40;16.05;;;7.78;;
82642;SDS011;72323;41.914;22.438;2023-11-22T03:24:08;13.38;;;7.32;;
82642;SDS011;72323;41.914;22.438;2023-11-22T03:26:34;13.52;;;7.50;;
82642;SDS011;72323;41.914;22.438;2023-11-22T03:29:00;11.52;;;6.53;;
82642;SDS011;72323;41.914;22.438;2023-11-22T03:31:27;12.43;;;6.65;;
82642;SDS011;72323;41.914;22.438;2023-11-22T03:33:53;12.18;;;5.57;;
82642;SDS011;72323;41.914;22.438;2023-11-22T03:36:20;11.85;;;6.07;;
82642;SDS011;72323;41.914;22.438;2023-11-22T03:38:47;9.88;;;5.70;;
82642;SDS011;72323;41.914;22.438;2023-11-22T03:41:14;10.45;;;6.28;;
82642;SDS011;72323;41.914;22.438;2023-11-22T03:43:40;12.45;;;6.40;;
82642;SDS011;72323;41.914;22.438;2023-11-22T03:46:06;10.23;;;6.05;;
82642;SDS011;72323;41.914;22.438;2023-11-22T03:48:32;14.80;;;6.28;;
82642;SDS011;72323;41.914;22.438;2023-11-22T03:50:58;10.27;;;6.35;;
82642;SDS011;72323;41.914;22.438;2023-11-22T03:53:25;11.68;;;6.03;;
82642;SDS011;72323;41.914;22.438;2023-11-22T03:55:52;9.82;;;5.65;;
82642;SDS011;72323;41.914;22.438;2023-11-22T03:58:18;10.48;;;4.72;;
82642;SDS011;72323;41.914;22.438;2023-11-22T04:00:44;8.60;;;4.30;;
82642;SDS011;72323;41.914;22.438;2023-11-22T04:03:10;8.13;;;4.78;;
82642;SDS011;72323;41.914;22.438;2023-11-22T04:05:36;13.30;;;5.32;;
82642;SDS011;72323;41.914;22.438;2023-11-22T04:08:02;7.80;;;4.40;;
82642;SDS011;72323;41.914;22.438;2023-11-22T04:10:28;6.82;;;4.05;;
82642;SDS011;72323;41.914;22.438;2023-11-22T04:12:55;7.40;;;3.97;;
82642;SDS011;72323;41.914;22.438;2023-11-22T04:15:22;6.75;;;3.72;;
82642;SDS011;72323;41.914;22.438;2023-11-22T04:17:48;5.97;;;3.72;;
82642;SDS011;72323;41.914;22.438;2023-11-22T04:20:14;8.77;;;3.80;;
82642;SDS011;72323;41.914;22.438;2023-11-22T04:22:41;7.55;;;3.70;;
82642;SDS011;72323;41.914;22.438;2023-11-22T04:25:07;5.10;;;3.03;;
82642;SDS011;72323;41.914;22.438;2023-11-22T04:27:33;53.45;;;21.60;;
82642;SDS011;72323;41.914;22.438;2023-11-22T04:30:00;131.95;;;53.38;;
82642;SDS011;72323;41.914;22.438;2023-11-22T04:32:26;105.85;;;44.28;;
82642;SDS011;72323;41.914;22.438;2023-11-22T04:34:52;77.18;;;32.67;;
82642;SDS011;72323;41.914;22.438;2023-11-22T04:37:18;40.78;;;14.88;;
82642;SDS011;72323;41.914;22.438;2023-11-22T04:39:44;24.95;;;10.07;;
82642;SDS011;72323;41.914;22.438;2023-11-22T04:42:14;18.23;;;8.38;;
82642;SDS011;72323;41.914;22.438;2023-11-22T04:44:40;20.58;;;8.60;;
82642;SDS011;72323;41.914;22.438;2023-11-22T04:47:06;24.65;;;11.13;;
82642;SDS011;72323;41.914;22.438;2023-11-22T04:49:32;23.45;;;10.45;;
82642;SDS011;72323;41.914;22.438;2023-11-22T04:51:58;25.40;;;10.13;;
82642;SDS011;72323;41.914;22.438;2023-11-22T04:54:25;19.55;;;9.15;;
82642;SDS011;72323;41.914;22.438;2023-11-22T04:56:51;20.67;;;8.95;;
82642;SDS011;72323;41.914;22.438;2023-11-22T04:59:17;21.25;;;8.82;;
82642;SDS011;72323;41.914;22.438;2023-11-22T05:01:43;15.27;;;7.82;;
82642;SDS011;72323;41.914;22.438;2023-11-22T05:04:10;15.30;;;6.88;;
82642;SDS011;72323;41.914;22.438;2023-11-22T05:06:36;12.38;;;6.20;;
82642;SDS011;72323;41.914;22.438;2023-11-22T05:09:02;13.52;;;8.70;;
82642;SDS011;72323;41.914;22.438;2023-11-22T05:11:28;11.70;;;7.07;;
82642;SDS011;72323;41.914;22.438;2023-11-22T05:13:54;11.75;;;6.72;;
82642;SDS011;72323;41.914;22.438;2023-11-22T05:16:20;12.10;;;6.30;;
82642;SDS011;72323;41.914;22.438;2023-11-22T05:18:46;11.45;;;6.78;;
82642;SDS011;72323;41.914;22.438;2023-11-22T05:21:12;12.55;;;6.97;;
82642;SDS011;72323;41.914;22.438;2023-11-22T05:23:39;13.20;;;7.32;;
82642;SDS011;72323;41.914;22.438;2023-11-22T05:26:05;11.18;;;6.97;;
82642;SDS011;72323;41.914;22.438;2023-11-22T05:28:31;13.75;;;7.50;;
82642;SDS011;72323;41.914;22.438;2023-11-22T05:30:58;13.18;;;7.53;;
82642;SDS011;72323;41.914;22.438;2023-11-22T05:33:24;13.57;;;7.10;;
82642;SDS011;72323;41.914;22.438;2023-11-22T05:35:50;13.30;;;7.82;;
82642;SDS011;72323;41.914;22.438;2023-11-22T05:38:16;12.95;;;7.03;;
82642;SDS011;72323;41.914;22.438;2023-11-22T05:40:42;16.17;;;7.75;;
82642;SDS011;72323;41.914;22.438;2023-11-22T05:43:09;14.65;;;8.88;;
82642;SDS011;72323;41.914;22.438;2023-11-22T05:45:35;15.55;;;8.75;;
82642;SDS011;72323;41.914;22.438;2023-11-22T05:48:01;15.85;;;8.32;;
82642;SDS011;72323;41.914;22.438;2023-11-22T05:50:27;18.73;;;9.15;;
82642;SDS011;72323;41.914;22.438;2023-11-22T05:52:53;13.15;;;8.10;;
82642;SDS011;72323;41.914;22.438;2023-11-22T05:55:19;28.23;;;14.38;;
82642;SDS011;72323;41.914;22.438;2023-11-22T06:00:35;55.42;;;28.27;;
82642;SDS011;72323;41.914;22.438;2023-11-22T06:03:03;66.90;;;33.13;;
82642;SDS011;72323;41.914;22.438;2023-11-22T06:05:29;49.83;;;25.55;;
82642;SDS011;72323;41.914;22.438;2023-11-22T06:07:56;67.18;;;32.53;;
82642;SDS011;72323;41.914;22.438;2023-11-22T06:10:23;76.07;;;37.33;;
82642;SDS011;72323;41.914;22.438;2023-11-22T06:12:51;88.05;;;45.55;;
82642;SDS011;72323;41.914;22.438;2023-11-22T06:15:27;78.00;;;40.30;;
82642;SDS011;72323;41.914;22.438;2023-11-22T06:20:47;71.03;;;35.47;;
82642;SDS011;72323;41.914;22.438;2023-11-22T06:23:29;61.83;;;30.85;;
82642;SDS011;72323;41.914;22.438;2023-11-22T06:26:01;58.30;;;30.23;;
82642;SDS011;72323;41.914;22.438;2023-11-22T06:28:29;57.90;;;31.98;;
82642;SDS011;72323;41.914;22.438;2023-11-22T06:33:59;56.25;;;30.70;;
82642;SDS011;72323;41.914;22.438;2023-11-22T06:36:26;57.83;;;29.02;;
82642;SDS011;72323;41.914;22.438;2023-11-22T06:39:02;65.00;;;28.90;;
82642;SDS011;72323;41.914;22.438;2023-11-22T06:41:49;91.13;;;48.92;;
82642;SDS011;72323;41.914;22.438;2023-11-22T06:47:26;53.30;;;25.38;;
82642;SDS011;72323;41.914;22.438;2023-11-22T06:52:40;41.65;;;23.02;;
82642;SDS011;72323;41.914;22.438;2023-11-22T06:58:12;26.25;;;14.65;;
82642;SDS011;72323;41.914;22.438;2023-11-22T07:03:52;32.40;;;17.05;;
82642;SDS011;72323;41.914;22.438;2023-11-22T07:15:36;22.77;;;8.18;;
82642;SDS011;72323;41.914;22.438;2023-11-22T07:19:02;30.52;;;11.30;;
82642;SDS011;72323;41.914;22.438;2023-11-22T07:21:43;16.08;;;8.43;;
82642;SDS011;72323;41.914;22.438;2023-11-22T07:24:23;79.00;;;39.42;;
82642;SDS011;72323;41.914;22.438;2023-11-22T07:26:56;25.60;;;11.35;;
82642;SDS011;72323;41.914;22.438;2023-11-22T07:29:48;32.75;;;17.58;;
82642;SDS011;72323;41.914;22.438;2023-11-22T07:35:21;24.77;;;14.68;;
82642;SDS011;72323;41.914;22.438;2023-11-22T07:37:55;14.55;;;8.10;;
82642;SDS011;72323;41.914;22.438;2023-11-22T07:46:54;10.85;;;5.78;;
82642;SDS011;72323;41.914;22.438;2023-11-22T07:49:59;11.82;;;5.72;;
82642;SDS011;72323;41.914;22.438;2023-11-22T07:52:45;51.60;;;27.55;;
82642;SDS011;72323;41.914;22.438;2023-11-22T07:55:27;22.92;;;15.00;;
82642;SDS011;72323;41.914;22.438;2023-11-22T08:00:59;27.08;;;12.55;;
82642;SDS011;72323;41.914;22.438;2023-11-22T08:04:07;123.93;;;65.75;;
82642;SDS011;72323;41.914;22.438;2023-11-22T08:09:28;103.40;;;63.28;;
82642;SDS011;72323;41.914;22.438;2023-11-22T08:12:12;22.30;;;13.57;;
82642;SDS011;72323;41.914;22.438;2023-11-22T08:14:49;14.82;;;8.57;;
82642;SDS011;72323;41.914;22.438;2023-11-22T08:20:21;16.85;;;8.93;;
82642;SDS011;72323;41.914;22.438;2023-11-22T08:26:01;11.55;;;7.47;;
82642;SDS011;72323;41.914;22.438;2023-11-22T08:28:31;15.02;;;8.32;;
82642;SDS011;72323;41.914;22.438;2023-11-22T08:34:18;21.17;;;13.07;;
82642;SDS011;72323;41.914;22.438;2023-11-22T08:36:56;19.17;;;10.85;;
82642;SDS011;72323;41.914;22.438;2023-11-22T08:39:25;21.10;;;12.70;;
82642;SDS011;72323;41.914;22.438;2023-11-22T08:41:57;19.98;;;13.05;;
82642;SDS011;72323;41.914;22.438;2023-11-22T08:44:37;17.83;;;10.50;;
82642;SDS011;72323;41.914;22.438;2023-11-22T08:47:03;15.45;;;9.45;;
82642;SDS011;72323;41.914;22.438;2023-11-22T08:49:30;13.88;;;8.73;;
82642;SDS011;72323;41.914;22.438;2023-11-22T08:58:03;33.47;;;19.70;;
82642;SDS011;72323;41.914;22.438;2023-11-22T09:00:43;13.02;;;8.95;;
82642;SDS011;72323;41.914;22.438;2023-11-22T09:03:35;10.77;;;6.07;;
82642;SDS011;72323;41.914;22.438;2023-11-22T09:06:02;10.43;;;4.97;;
82642;SDS011;72323;41.914;22.438;2023-11-22T09:08:29;13.48;;;7.82;;
82642;SDS011;72323;41.914;22.438;2023-11-22T09:11:09;9.85;;;5.80;;
82642;SDS011;72323;41.914;22.438;2023-11-22T09:13:48;8.25;;;5.05;;
82642;SDS011;72323;41.914;22.438;2023-11-22T09:16:38;7.72;;;3.83;;
82642;SDS011;72323;41.914;22.438;2023-11-22T09:19:18;8.50;;;4.47;;
82642;SDS011;72323;41.914;22.438;2023-11-22T09:22:21;10.68;;;5.85;;
82642;SDS011;72323;41.914;22.438;2023-11-22T09:25:00;11.32;;;5.50;;
82642;SDS011;72323;41.914;22.438;2023-11-22T09:30:35;25.13;;;8.73;;
82642;SDS011;72323;41.914;22.438;2023-11-22T09:33:16;25.58;;;10.85;;
82642;SDS011;72323;41.914;22.438;2023-11-22T09:42:03;24.42;;;11.38;;
82642;SDS011;72323;41.914;22.438;2023-11-22T09:53:05;10.25;;;5.70;;
82642;SDS011;72323;41.914;22.438;2023-11-22T10:01:50;8.85;;;4.50;;
82642;SDS011;72323;41.914;22.438;2023-11-22T10:04:17;9.30;;;4.00;;
82642;SDS011;72323;41.914;22.438;2023-11-22T10:06:59;6.40;;;4.20;;
82642;SDS011;72323;41.914;22.438;2023-11-22T10:15:47;8.82;;;5.57;;
82642;SDS011;72323;41.914;22.438;2023-11-22T10:18:22;14.07;;;6.82;;
82642;SDS011;72323;41.914;22.438;2023-11-22T10:23:44;12.95;;;6.85;;
82642;SDS011;72323;41.914;22.438;2023-11-22T10:26:30;27.15;;;13.18;;
82642;SDS011;72323;41.914;22.438;2023-11-22T10:34:44;27.25;;;16.23;;
82642;SDS011;72323;41.914;22.438;2023-11-22T10:40:14;18.88;;;8.73;;
82642;SDS011;72323;41.914;22.438;2023-11-22T10:45:22;23.30;;;11.93;;
82642;SDS011;72323;41.914;22.438;2023-11-22T10:53:51;16.05;;;7.18;;
82642;SDS011;72323;41.914;22.438;2023-11-22T10:59:30;11.43;;;6.07;;
82642;SDS011;72323;41.914;22.438;2023-11-22T11:05:34;10.85;;;4.53;;
82642;SDS011;72323;41.914;22.438;2023-11-22T11:08:21;15.05;;;7.18;;
82642;SDS011;72323;41.914;22.438;2023-11-22T11:13:56;7.43;;;4.05;;
82642;SDS011;72323;41.914;22.438;2023-11-22T11:23:09;14.93;;;8.48;;
82642;SDS011;72323;41.914;22.438;2023-11-22T11:25:57;10.90;;;4.07;;
82642;SDS011;72323;41.914;22.438;2023-11-22T11:34:37;10.82;;;4.95;;
82642;SDS011;72323;41.914;22.438;2023-11-22T11:40:03;12.15;;;5.95;;
82642;SDS011;72323;41.914;22.438;2023-11-22T11:48:36;13.13;;;5.35;;
82642;SDS011;72323;41.914;22.438;2023-11-22T11:51:02;7.85;;;4.90;;
82642;SDS011;72323;41.914;22.438;2023-11-22T11:56:40;8.55;;;4.65;;
82642;SDS011;72323;41.914;22.438;2023-11-22T11:59:28;8.77;;;4.40;;
82642;SDS011;72323;41.914;22.438;2023-11-22T12:02:05;6.43;;;3.90;;
82642;SDS011;72323;41.914;22.438;2023-11-22T12:04:38;5.60;;;3.88;;
82642;SDS011;72323;41.914;22.438;2023-11-22T12:17:04;16.92;;;10.43;;
82642;SDS011;72323;41.914;22.438;2023-11-22T12:19:49;12.48;;;9.18;;
82642;SDS011;72323;41.914;22.438;2023-11-22T12:25:42;42.67;;;26.52;;
82642;SDS011;72323;41.914;22.438;2023-11-22T12:34:49;12.38;;;8.32;;
82642;SDS011;72323;41.914;22.438;2023-11-22T12:37:38;8.18;;;4.00;;
82642;SDS011;72323;41.914;22.438;2023-11-22T12:49:51;7.18;;;4.25;;
82642;SDS011;72323;41.914;22.438;2023-11-22T12:58:34;119.10;;;48.60;;
82642;SDS011;72323;41.914;22.438;2023-11-22T13:01:11;122.15;;;49.15;;
82642;SDS011;72323;41.914;22.438;2023-11-22T13:03:41;124.57;;;50.45;;
82642;SDS011;72323;41.914;22.438;2023-11-22T13:06:11;99.30;;;43.63;;
82642;SDS011;72323;41.914;22.438;2023-11-22T13:12:00;9.77;;;4.70;;
82642;SDS011;72323;41.914;22.438;2023-11-22T13:14:29;34.65;;;20.08;;
82642;SDS011;72323;41.914;22.438;2023-11-22T13:20:27;9.20;;;3.45;;
82642;SDS011;72323;41.914;22.438;2023-11-22T13:32:57;16.42;;;11.10;;
82642;SDS011;72323;41.914;22.438;2023-11-22T13:35:42;10.15;;;4.90;;
82642;SDS011;72323;41.914;22.438;2023-11-22T13:41:38;5.57;;;3.50;;
82642;SDS011;72323;41.914;22.438;2023-11-22T13:44:35;4.65;;;2.75;;
82642;SDS011;72323;41.914;22.438;2023-11-22T14:06:30;13.27;;;6.90;;
82642;SDS011;72323;41.914;22.438;2023-11-22T14:09:02;11.75;;;7.22;;
82642;SDS011;72323;41.914;22.438;2023-11-22T14:11:34;34.72;;;19.77;;
82642;SDS011;72323;41.914;22.438;2023-11-22T14:14:02;25.30;;;14.48;;
82642;SDS011;72323;41.914;22.438;2023-11-22T14:19:32;18.10;;;9.25;;
82642;SDS011;72323;41.914;22.438;2023-11-22T14:24:53;24.20;;;14.00;;
82642;SDS011;72323;41.914;22.438;2023-11-22T14:27:27;15.93;;;8.07;;
82642;SDS011;72323;41.914;22.438;2023-11-22T14:30:13;16.25;;;6.63;;
82642;SDS011;72323;41.914;22.438;2023-11-22T14:32:42;18.52;;;4.75;;
82642;SDS011;72323;41.914;22.438;2023-11-22T14:35:08;8.65;;;3.30;;
82642;SDS011;72323;41.914;22.438;2023-11-22T14:37:38;16.33;;;6.25;;
82642;SDS011;72323;41.914;22.438;2023-11-22T14:40:10;21.63;;;8.57;;
82642;SDS011;72323;41.914;22.438;2023-11-22T14:45:18;22.27;;;9.23;;
82642;SDS011;72323;41.914;22.438;2023-11-22T14:47:55;22.92;;;10.48;;
82642;SDS011;72323;41.914;22.438;2023-11-22T14:50:35;10.70;;;5.53;;
82642;SDS011;72323;41.914;22.438;2023-11-22T14:53:01;8.60;;;4.47;;
82642;SDS011;72323;41.914;22.438;2023-11-22T14:55:28;9.27;;;4.57;;
82642;SDS011;72323;41.914;22.438;2023-11-22T14:58:05;9.65;;;5.75;;
82642;SDS011;72323;41.914;22.438;2023-11-22T15:00:32;15.18;;;9.52;;
82642;SDS011;72323;41.914;22.438;2023-11-22T15:06:25;21.73;;;14.07;;
82642;SDS011;72323;41.914;22.438;2023-11-22T15:09:00;55.65;;;33.05;;
82642;SDS011;72323;41.914;22.438;2023-11-22T15:11:37;39.78;;;25.70;;
82642;SDS011;72323;41.914;22.438;2023-11-22T15:14:06;27.90;;;17.33;;
82642;SDS011;72323;41.914;22.438;2023-11-22T15:16:37;39.42;;;26.30;;
82642;SDS011;72323;41.914;22.438;2023-11-22T15:19:06;27.00;;;17.52;;
82642;SDS011;72323;41.914;22.438;2023-11-22T15:24:01;18.38;;;12.10;;
82642;SDS011;72323;41.914;22.438;2023-11-22T15:26:28;17.77;;;10.52;;
82642;SDS011;72323;41.914;22.438;2023-11-22T15:29:00;18.75;;;12.07;;
82642;SDS011;72323;41.914;22.438;2023-11-22T15:31:27;22.35;;;13.20;;
82642;SDS011;72323;41.914;22.438;2023-11-22T15:33:58;18.50;;;11.77;;
82642;SDS011;72323;41.914;22.438;2023-11-22T15:36:42;18.80;;;11.98;;
82642;SDS011;72323;41.914;22.438;2023-11-22T15:39:16;17.55;;;11.55;;
82642;SDS011;72323;41.914;22.438;2023-11-22T15:41:50;22.95;;;12.35;;
82642;SDS011;72323;41.914;22.438;2023-11-22T15:44:19;20.88;;;14.38;;
82642;SDS011;72323;41.914;22.438;2023-11-22T16:04:50;53.50;;;29.08;;
82642;SDS011;72323;41.914;22.438;2023-11-22T16:07:17;49.22;;;22.48;;
82642;SDS011;72323;41.914;22.438;2023-11-22T16:09:43;32.53;;;17.23;;
82642;SDS011;72323;41.914;22.438;2023-11-22T16:12:12;33.33;;;18.77;;
82642;SDS011;72323;41.914;22.438;2023-11-22T16:14:49;26.60;;;13.40;;
82642;SDS011;72323;41.914;22.438;2023-11-22T16:17:15;21.98;;;12.13;;
82642;SDS011;72323;41.914;22.438;2023-11-22T16:19:47;19.98;;;10.75;;
82642;SDS011;72323;41.914;22.438;2023-11-22T16:24:49;17.02;;;9.15;;
82642;SDS011;72323;41.914;22.438;2023-11-22T16:27:39;16.58;;;9.32;;
82642;SDS011;72323;41.914;22.438;2023-11-22T16:30:30;16.40;;;8.02;;
82642;SDS011;72323;41.914;22.438;2023-11-22T16:33:03;18.65;;;9.70;;
82642;SDS011;72323;41.914;22.438;2023-11-22T16:35:31;25.27;;;12.23;;
82642;SDS011;72323;41.914;22.438;2023-11-22T16:46:45;67.72;;;39.10;;
82642;SDS011;72323;41.914;22.438;2023-11-22T16:49:12;54.17;;;30.42;;
82642;SDS011;72323;41.914;22.438;2023-11-22T16:51:39;63.55;;;33.70;;
82642;SDS011;72323;41.914;22.438;2023-11-22T16:54:06;51.17;;;28.05;;
82642;SDS011;72323;41.914;22.438;2023-11-22T16:56:34;44.28;;;25.60;;
82642;SDS011;72323;41.914;22.438;2023-11-22T16:59:01;48.20;;;24.98;;
82642;SDS011;72323;41.914;22.438;2023-11-22T17:01:27;48.28;;;25.27;;
82642;SDS011;72323;41.914;22.438;2023-11-22T17:03:53;43.17;;;23.48;;
82642;SDS011;72323;41.914;22.438;2023-11-22T17:06:19;68.22;;;40.00;;
82642;SDS011;72323;41.914;22.438;2023-11-22T17:08:56;41.10;;;26.70;;
82642;SDS011;72323;41.914;22.438;2023-11-22T17:11:22;28.58;;;18.23;;
82642;SDS011;72323;41.914;22.438;2023-11-22T17:13:48;25.10;;;13.70;;
82642;SDS011;72323;41.914;22.438;2023-11-22T17:24:54;16.48;;;9.73;;
82642;SDS011;72323;41.914;22.438;2023-11-22T17:27:22;44.42;;;27.38;;
82642;SDS011;72323;41.914;22.438;2023-11-22T17:29:50;29.80;;;19.45;;
82642;SDS011;72323;41.914;22.438;2023-11-22T17:32:18;31.70;;;19.70;;
82642;SDS011;72323;41.914;22.438;2023-11-22T17:34:48;22.02;;;12.98;;
82642;SDS011;72323;41.914;22.438;2023-11-22T17:37:14;19.23;;;11.88;;
82642;SDS011;72323;41.914;22.438;2023-11-22T17:39:40;18.52;;;11.90;;
82642;SDS011;72323;41.914;22.438;2023-11-22T17:42:06;19.35;;;12.70;;
82642;SDS011;72323;41.914;22.438;2023-11-22T17:44:35;20.17;;;13.30;;
82642;SDS011;72323;41.914;22.438;2023-11-22T17:47:02;21.13;;;13.40;;
82642;SDS011;72323;41.914;22.438;2023-11-22T17:49:31;24.30;;;15.55;;
82642;SDS011;72323;41.914;22.438;2023-11-22T17:55:01;36.67;;;21.80;;
82642;SDS011;72323;41.914;22.438;2023-11-22T17:57:30;29.27;;;18.08;;
82642;SDS011;72323;41.914;22.438;2023-11-22T17:59:56;35.95;;;19.15;;
82642;SDS011;72323;41.914;22.438;2023-11-22T18:02:24;24.20;;;16.08;;
82642;SDS011;72323;41.914;22.438;2023-11-22T18:04:51;18.60;;;12.95;;
82642;SDS011;72323;41.914;22.438;2023-11-22T18:07:17;18.60;;;10.93;;
82642;SDS011;72323;41.914;22.438;2023-11-22T18:09:44;14.88;;;8.20;;
82642;SDS011;72323;41.914;22.438;2023-11-22T18:12:10;15.82;;;9.88;;
82642;SDS011;72323;41.914;22.438;2023-11-22T18:14:36;18.98;;;11.52;;
82642;SDS011;72323;41.914;22.438;2023-11-22T18:17:02;16.35;;;10.57;;
82642;SDS011;72323;41.914;22.438;2023-11-22T18:19:29;16.33;;;9.38;;
82642;SDS011;72323;41.914;22.438;2023-11-22T18:24:59;21.33;;;13.52;;
82642;SDS011;72323;41.914;22.438;2023-11-22T18:30:29;18.33;;;10.38;;
82642;SDS011;72323;41.914;22.438;2023-11-22T18:32:56;17.88;;;11.32;;
82642;SDS011;72323;41.914;22.438;2023-11-22T18:35:22;18.98;;;12.65;;
82642;SDS011;72323;41.914;22.438;2023-11-22T18:37:48;26.30;;;16.17;;
82642;SDS011;72323;41.914;22.438;2023-11-22T18:40:14;34.97;;;21.60;;
82642;SDS011;72323;41.914;22.438;2023-11-22T18:42:41;56.35;;;29.55;;
82642;SDS011;72323;41.914;22.438;2023-11-22T18:48:11;91.78;;;44.85;;
82642;SDS011;72323;41.914;22.438;2023-11-22T18:50:37;87.95;;;46.10;;
82642;SDS011;72323;41.914;22.438;2023-11-22T18:53:03;84.15;;;46.30;;
82642;SDS011;72323;41.914;22.438;2023-11-22T18:55:30;67.60;;;39.78;;
82642;SDS011;72323;41.914;22.438;2023-11-22T18:57:56;37.83;;;24.63;;
82642;SDS011;72323;41.914;22.438;2023-11-22T19:00:22;28.13;;;20.00;;
82642;SDS011;72323;41.914;22.438;2023-11-22T19:02:48;24.42;;;16.80;;
82642;SDS011;72323;41.914;22.438;2023-11-22T19:05:15;19.38;;;13.27;;
82642;SDS011;72323;41.914;22.438;2023-11-22T19:07:41;18.88;;;12.95;;
82642;SDS011;72323;41.914;22.438;2023-11-22T19:10:08;18.02;;;12.20;;
82642;SDS011;72323;41.914;22.438;2023-11-22T19:12:34;18.58;;;12.05;;
82642;SDS011;72323;41.914;22.438;2023-11-22T19:15:00;20.88;;;11.73;;
82642;SDS011;72323;41.914;22.438;2023-11-22T19:17:27;18.70;;;12.02;;
82642;SDS011;72323;41.914;22.438;2023-11-22T19:19:53;20.45;;;11.93;;
82642;SDS011;72323;41.914;22.438;2023-11-22T19:22:19;17.52;;;10.90;;